sensor_id;sensor_type;location;lat;lon;timestamp;P1;durP1;ratioP1;P2;durP2;ratioP2
14789;SDS011;7486;51.010;10.366;2024-03-08T00:00:25;23.63;;;18.77;;
14789;SDS011;7486;51.010;10.366;2024-03-08T00:03:10;27.00;;;20.30;;
14789;SDS011;7486;51.010;10.366;2024-03-08T00:05:56;24.07;;;19.93;;
14789;SDS011;7486;51.010;10.366;2024-03-08T00:08:41;24.90;;;20.07;;
14789;SDS011;7486;51.010;10.366;2024-03-08T00:11:28;25.40;;;18.77;;
14789;SDS011;7486;51.010;10.366;2024-03-08T00:14:13;25.03;;;18.93;;
14789;SDS011;7486;51.010;10.366;2024-03-08T00:16:59;27.27;;;18.77;;
14789;SDS011;7486;51.010;10.366;2024-03-08T00:19:44;25.87;;;19.90;;
14789;SDS011;7486;51.010;10.366;2024-03-08T00:22:30;26.63;;;19.87;;
14789;SDS011;7486;51.010;10.366;2024-03-08T00:25:16;24.80;;;19.33;;
14789;SDS011;7486;51.010;10.366;2024-03-08T00:28:02;24.87;;;19.40;;
14789;SDS011;7486;51.010;10.366;2024-03-08T00:30:48;24.23;;;19.00;;
14789;SDS011;7486;51.010;10.366;2024-03-08T00:33:34;25.97;;;19.03;;
14789;SDS011;7486;51.010;10.366;2024-03-08T00:36:19;24.83;;;19.07;;
14789;SDS011;7486;51.010;10.366;2024-03-08T00:39:05;23.60;;;19.10;;
14789;SDS011;7486;51.010;10.366;2024-03-08T00:41:50;25.37;;;19.90;;
14789;SDS011;7486;51.010;10.366;2024-03-08T00:44:37;25.47;;;19.97;;
14789;SDS011;7486;51.010;10.366;2024-03-08T00:47:23;26.17;;;19.90;;
14789;SDS011;7486;51.010;10.366;2024-03-08T00:50:08;25.63;;;19.60;;
14789;SDS011;7486;51.010;10.366;2024-03-08T00:52:54;27.77;;;20.20;;
14789;SDS011;7486;51.010;10.366;2024-03-08T00:55:40;24.13;;;19.60;;
14789;SDS011;7486;51.010;10.366;2024-03-08T00:58:25;26.70;;;20.10;;
14789;SDS011;7486;51.010;10.366;2024-03-08T01:01:12;26.87;;;19.27;;
14789;SDS011;7486;51.010;10.366;2024-03-08T01:03:58;25.73;;;19.97;;
14789;SDS011;7486;51.010;10.366;2024-03-08T01:06:44;25.13;;;18.97;;
14789;SDS011;7486;51.010;10.366;2024-03-08T01:09:30;25.97;;;18.70;;
14789;SDS011;7486;51.010;10.366;2024-03-08T01:12:16;25.20;;;19.07;;
14789;SDS011;7486;51.010;10.366;2024-03-08T01:15:02;26.27;;;20.03;;
14789;SDS011;7486;51.010;10.366;2024-03-08T01:17:48;25.90;;;19.80;;
14789;SDS011;7486;51.010;10.366;2024-03-08T01:20:34;26.60;;;20.77;;
14789;SDS011;7486;51.010;10.366;2024-03-08T01:23:19;22.73;;;18.27;;
14789;SDS011;7486;51.010;10.366;2024-03-08T01:26:05;24.97;;;19.90;;
14789;SDS011;7486;51.010;10.366;2024-03-08T01:28:50;26.00;;;19.60;;
14789;SDS011;7486;51.010;10.366;2024-03-08T01:31:36;29.10;;;20.97;;
14789;SDS011;7486;51.010;10.366;2024-03-08T01:34:22;27.93;;;19.77;;
14789;SDS011;7486;51.010;10.366;2024-03-08T01:37:07;29.07;;;20.77;;
14789;SDS011;7486;51.010;10.366;2024-03-08T01:39:53;25.77;;;19.80;;
14789;SDS011;7486;51.010;10.366;2024-03-08T01:42:39;26.73;;;19.60;;
14789;SDS011;7486;51.010;10.366;2024-03-08T01:45:25;25.67;;;20.13;;
14789;SDS011;7486;51.010;10.366;2024-03-08T01:48:11;26.90;;;20.60;;
14789;SDS011;7486;51.010;10.366;2024-03-08T01:50:57;25.50;;;19.33;;
14789;SDS011;7486;51.010;10.366;2024-03-08T01:53:43;25.83;;;20.13;;
14789;SDS011;7486;51.010;10.366;2024-03-08T01:56:32;26.77;;;19.07;;
14789;SDS011;7486;51.010;10.366;2024-03-08T01:59:18;24.73;;;19.00;;
14789;SDS011;7486;51.010;10.366;2024-03-08T02:02:04;25.57;;;20.07;;
14789;SDS011;7486;51.010;10.366;2024-03-08T02:04:51;27.77;;;21.23;;
14789;SDS011;7486;51.010;10.366;2024-03-08T02:07:37;25.67;;;19.40;;
14789;SDS011;7486;51.010;10.366;2024-03-08T02:10:22;25.73;;;20.07;;
14789;SDS011;7486;51.010;10.366;2024-03-08T02:13:08;25.37;;;19.70;;
14789;SDS011;7486;51.010;10.366;2024-03-08T02:15:58;25.90;;;19.63;;
14789;SDS011;7486;51.010;10.366;2024-03-08T02:18:45;26.50;;;20.03;;
14789;SDS011;7486;51.010;10.366;2024-03-08T02:21:31;27.87;;;20.43;;
14789;SDS011;7486;51.010;10.366;2024-03-08T02:24:16;26.40;;;19.97;;
14789;SDS011;7486;51.010;10.366;2024-03-08T02:27:03;28.77;;;21.10;;
14789;SDS011;7486;51.010;10.366;2024-03-08T02:29:50;26.80;;;20.70;;
14789;SDS011;7486;51.010;10.366;2024-03-08T02:32:39;29.60;;;21.20;;
14789;SDS011;7486;51.010;10.366;2024-03-08T02:35:25;25.60;;;20.30;;
14789;SDS011;7486;51.010;10.366;2024-03-08T02:38:11;28.10;;;20.90;;
14789;SDS011;7486;51.010;10.366;2024-03-08T02:41:00;28.93;;;22.47;;
14789;SDS011;7486;51.010;10.366;2024-03-08T02:43:45;26.80;;;20.97;;
14789;SDS011;7486;51.010;10.366;2024-03-08T02:46:31;27.77;;;20.83;;
14789;SDS011;7486;51.010;10.366;2024-03-08T02:49:16;25.77;;;19.83;;
14789;SDS011;7486;51.010;10.366;2024-03-08T02:52:06;28.50;;;20.87;;
14789;SDS011;7486;51.010;10.366;2024-03-08T02:54:51;27.80;;;22.07;;
14789;SDS011;7486;51.010;10.366;2024-03-08T02:57:40;28.23;;;21.13;;
14789;SDS011;7486;51.010;10.366;2024-03-08T03:00:26;30.67;;;22.23;;
14789;SDS011;7486;51.010;10.366;2024-03-08T03:03:11;27.57;;;21.87;;
14789;SDS011;7486;51.010;10.366;2024-03-08T03:05:57;28.83;;;21.97;;
14789;SDS011;7486;51.010;10.366;2024-03-08T03:08:42;30.20;;;21.93;;
14789;SDS011;7486;51.010;10.366;2024-03-08T03:11:28;28.10;;;22.13;;
14789;SDS011;7486;51.010;10.366;2024-03-08T03:14:14;29.67;;;22.13;;
14789;SDS011;7486;51.010;10.366;2024-03-08T03:16:59;28.27;;;21.53;;
14789;SDS011;7486;51.010;10.366;2024-03-08T03:19:45;27.40;;;21.03;;
14789;SDS011;7486;51.010;10.366;2024-03-08T03:22:32;28.60;;;22.10;;
14789;SDS011;7486;51.010;10.366;2024-03-08T03:25:21;29.80;;;22.53;;
14789;SDS011;7486;51.010;10.366;2024-03-08T03:28:06;31.53;;;22.93;;
14789;SDS011;7486;51.010;10.366;2024-03-08T03:30:53;30.57;;;23.30;;
14789;SDS011;7486;51.010;10.366;2024-03-08T03:33:38;29.63;;;21.90;;
14789;SDS011;7486;51.010;10.366;2024-03-08T03:36:25;27.10;;;21.57;;
14789;SDS011;7486;51.010;10.366;2024-03-08T03:39:11;30.27;;;23.20;;
14789;SDS011;7486;51.010;10.366;2024-03-08T03:41:57;30.60;;;22.20;;
14789;SDS011;7486;51.010;10.366;2024-03-08T03:44:46;29.13;;;23.13;;
14789;SDS011;7486;51.010;10.366;2024-03-08T03:47:33;29.53;;;21.53;;
14789;SDS011;7486;51.010;10.366;2024-03-08T03:50:18;31.00;;;22.40;;
14789;SDS011;7486;51.010;10.366;2024-03-08T03:53:05;29.80;;;23.17;;
14789;SDS011;7486;51.010;10.366;2024-03-08T03:55:50;32.40;;;23.27;;
14789;SDS011;7486;51.010;10.366;2024-03-08T03:58:36;30.00;;;22.70;;
14789;SDS011;7486;51.010;10.366;2024-03-08T04:01:22;32.83;;;23.03;;
14789;SDS011;7486;51.010;10.366;2024-03-08T04:04:08;32.03;;;23.30;;
14789;SDS011;7486;51.010;10.366;2024-03-08T04:06:53;31.67;;;23.17;;
14789;SDS011;7486;51.010;10.366;2024-03-08T04:09:39;31.20;;;23.07;;
14789;SDS011;7486;51.010;10.366;2024-03-08T04:12:25;30.53;;;22.60;;
14789;SDS011;7486;51.010;10.366;2024-03-08T04:15:10;33.87;;;22.63;;
14789;SDS011;7486;51.010;10.366;2024-03-08T04:17:56;29.83;;;22.67;;
14789;SDS011;7486;51.010;10.366;2024-03-08T04:20:42;32.67;;;23.03;;
14789;SDS011;7486;51.010;10.366;2024-03-08T04:23:27;30.93;;;23.07;;
14789;SDS011;7486;51.010;10.366;2024-03-08T04:26:13;34.10;;;24.53;;
14789;SDS011;7486;51.010;10.366;2024-03-08T04:29:02;32.17;;;24.23;;
14789;SDS011;7486;51.010;10.366;2024-03-08T04:31:48;30.40;;;22.53;;
14789;SDS011;7486;51.010;10.366;2024-03-08T04:34:33;31.23;;;22.57;;
14789;SDS011;7486;51.010;10.366;2024-03-08T04:37:18;33.03;;;24.27;;
14789;SDS011;7486;51.010;10.366;2024-03-08T04:40:04;33.17;;;24.47;;
14789;SDS011;7486;51.010;10.366;2024-03-08T04:42:50;30.50;;;22.60;;
14789;SDS011;7486;51.010;10.366;2024-03-08T04:45:37;32.73;;;24.07;;
14789;SDS011;7486;51.010;10.366;2024-03-08T04:48:22;34.10;;;23.83;;
14789;SDS011;7486;51.010;10.366;2024-03-08T04:51:08;34.70;;;24.37;;
14789;SDS011;7486;51.010;10.366;2024-03-08T04:53:55;36.03;;;24.87;;
14789;SDS011;7486;51.010;10.366;2024-03-08T04:56:41;34.13;;;24.90;;
14789;SDS011;7486;51.010;10.366;2024-03-08T04:59:27;34.03;;;24.23;;
14789;SDS011;7486;51.010;10.366;2024-03-08T05:02:13;32.93;;;24.63;;
14789;SDS011;7486;51.010;10.366;2024-03-08T05:04:58;33.53;;;25.83;;
14789;SDS011;7486;51.010;10.366;2024-03-08T05:07:44;33.33;;;24.70;;
14789;SDS011;7486;51.010;10.366;2024-03-08T05:10:29;35.00;;;25.00;;
14789;SDS011;7486;51.010;10.366;2024-03-08T05:13:15;35.67;;;25.30;;
14789;SDS011;7486;51.010;10.366;2024-03-08T05:16:01;35.20;;;25.23;;
14789;SDS011;7486;51.010;10.366;2024-03-08T05:18:46;32.77;;;24.70;;
14789;SDS011;7486;51.010;10.366;2024-03-08T05:21:32;36.50;;;25.43;;
14789;SDS011;7486;51.010;10.366;2024-03-08T05:24:18;36.33;;;25.47;;
14789;SDS011;7486;51.010;10.366;2024-03-08T05:27:04;35.03;;;25.60;;
14789;SDS011;7486;51.010;10.366;2024-03-08T05:29:50;35.37;;;26.70;;
14789;SDS011;7486;51.010;10.366;2024-03-08T05:32:35;36.17;;;25.30;;
14789;SDS011;7486;51.010;10.366;2024-03-08T05:35:21;36.67;;;25.97;;
14789;SDS011;7486;51.010;10.366;2024-03-08T05:38:06;38.00;;;25.90;;
14789;SDS011;7486;51.010;10.366;2024-03-08T05:40:52;37.03;;;26.00;;
14789;SDS011;7486;51.010;10.366;2024-03-08T05:43:38;37.27;;;26.57;;
14789;SDS011;7486;51.010;10.366;2024-03-08T05:46:24;36.53;;;25.73;;
14789;SDS011;7486;51.010;10.366;2024-03-08T05:49:09;41.33;;;27.33;;
14789;SDS011;7486;51.010;10.366;2024-03-08T05:51:56;35.97;;;26.63;;
14789;SDS011;7486;51.010;10.366;2024-03-08T05:54:42;37.67;;;27.10;;
14789;SDS011;7486;51.010;10.366;2024-03-08T05:57:27;36.70;;;27.33;;
14789;SDS011;7486;51.010;10.366;2024-03-08T06:00:13;35.63;;;26.57;;
14789;SDS011;7486;51.010;10.366;2024-03-08T06:02:58;37.97;;;26.83;;
14789;SDS011;7486;51.010;10.366;2024-03-08T06:05:44;36.43;;;26.67;;
14789;SDS011;7486;51.010;10.366;2024-03-08T06:08:29;38.30;;;26.37;;
14789;SDS011;7486;51.010;10.366;2024-03-08T06:11:16;35.80;;;25.83;;
14789;SDS011;7486;51.010;10.366;2024-03-08T06:14:04;39.97;;;26.70;;
14789;SDS011;7486;51.010;10.366;2024-03-08T06:16:50;36.97;;;25.53;;
14789;SDS011;7486;51.010;10.366;2024-03-08T06:19:36;38.50;;;27.43;;
14789;SDS011;7486;51.010;10.366;2024-03-08T06:22:21;38.00;;;26.37;;
14789;SDS011;7486;51.010;10.366;2024-03-08T06:25:07;38.43;;;27.67;;
14789;SDS011;7486;51.010;10.366;2024-03-08T06:27:53;41.20;;;27.37;;
14789;SDS011;7486;51.010;10.366;2024-03-08T06:30:39;37.83;;;28.00;;
14789;SDS011;7486;51.010;10.366;2024-03-08T06:33:25;37.67;;;27.43;;
14789;SDS011;7486;51.010;10.366;2024-03-08T06:36:10;36.57;;;27.43;;
14789;SDS011;7486;51.010;10.366;2024-03-08T06:38:56;38.13;;;27.77;;
14789;SDS011;7486;51.010;10.366;2024-03-08T06:41:42;36.40;;;26.73;;
14789;SDS011;7486;51.010;10.366;2024-03-08T06:44:27;37.30;;;26.53;;
14789;SDS011;7486;51.010;10.366;2024-03-08T06:47:13;37.33;;;26.97;;
14789;SDS011;7486;51.010;10.366;2024-03-08T06:49:59;33.90;;;26.03;;
14789;SDS011;7486;51.010;10.366;2024-03-08T06:52:45;37.23;;;25.83;;
14789;SDS011;7486;51.010;10.366;2024-03-08T06:55:30;36.77;;;26.67;;
14789;SDS011;7486;51.010;10.366;2024-03-08T06:58:17;38.77;;;26.77;;
14789;SDS011;7486;51.010;10.366;2024-03-08T07:01:03;39.47;;;26.77;;
14789;SDS011;7486;51.010;10.366;2024-03-08T07:03:50;33.77;;;25.90;;
14789;SDS011;7486;51.010;10.366;2024-03-08T07:06:35;34.53;;;25.97;;
14789;SDS011;7486;51.010;10.366;2024-03-08T07:09:20;35.70;;;26.70;;
14789;SDS011;7486;51.010;10.366;2024-03-08T07:12:06;35.40;;;25.93;;
14789;SDS011;7486;51.010;10.366;2024-03-08T07:14:52;32.47;;;24.40;;
14789;SDS011;7486;51.010;10.366;2024-03-08T07:17:37;33.77;;;24.90;;
14789;SDS011;7486;51.010;10.366;2024-03-08T07:20:24;33.40;;;25.23;;
14789;SDS011;7486;51.010;10.366;2024-03-08T07:23:10;32.13;;;24.63;;
14789;SDS011;7486;51.010;10.366;2024-03-08T07:25:55;33.37;;;24.87;;
14789;SDS011;7486;51.010;10.366;2024-03-08T07:28:41;32.60;;;24.73;;
14789;SDS011;7486;51.010;10.366;2024-03-08T07:31:27;29.47;;;22.87;;
14789;SDS011;7486;51.010;10.366;2024-03-08T07:34:13;32.33;;;23.93;;
14789;SDS011;7486;51.010;10.366;2024-03-08T07:36:59;29.80;;;22.67;;
14789;SDS011;7486;51.010;10.366;2024-03-08T07:39:44;30.33;;;23.00;;
14789;SDS011;7486;51.010;10.366;2024-03-08T07:42:29;30.00;;;24.43;;
14789;SDS011;7486;51.010;10.366;2024-03-08T07:45:15;30.90;;;24.17;;
14789;SDS011;7486;51.010;10.366;2024-03-08T07:48:02;29.23;;;23.40;;
14789;SDS011;7486;51.010;10.366;2024-03-08T07:50:48;32.40;;;24.30;;
14789;SDS011;7486;51.010;10.366;2024-03-08T07:53:33;30.40;;;23.87;;
14789;SDS011;7486;51.010;10.366;2024-03-08T07:56:19;30.23;;;23.23;;
14789;SDS011;7486;51.010;10.366;2024-03-08T07:59:05;33.73;;;23.90;;
14789;SDS011;7486;51.010;10.366;2024-03-08T08:01:51;32.30;;;23.30;;
14789;SDS011;7486;51.010;10.366;2024-03-08T08:04:36;30.90;;;23.20;;
14789;SDS011;7486;51.010;10.366;2024-03-08T08:07:23;30.87;;;23.50;;
14789;SDS011;7486;51.010;10.366;2024-03-08T08:10:09;31.73;;;23.33;;
14789;SDS011;7486;51.010;10.366;2024-03-08T08:12:54;28.47;;;21.87;;
14789;SDS011;7486;51.010;10.366;2024-03-08T08:15:41;29.67;;;23.07;;
14789;SDS011;7486;51.010;10.366;2024-03-08T08:18:27;31.77;;;24.87;;
14789;SDS011;7486;51.010;10.366;2024-03-08T08:21:12;29.87;;;24.20;;
14789;SDS011;7486;51.010;10.366;2024-03-08T08:23:58;32.00;;;24.27;;
14789;SDS011;7486;51.010;10.366;2024-03-08T08:26:43;32.50;;;23.73;;
14789;SDS011;7486;51.010;10.366;2024-03-08T08:29:29;31.17;;;23.80;;
14789;SDS011;7486;51.010;10.366;2024-03-08T08:32:14;30.13;;;24.10;;
14789;SDS011;7486;51.010;10.366;2024-03-08T08:35:02;31.63;;;23.80;;
14789;SDS011;7486;51.010;10.366;2024-03-08T08:37:48;30.33;;;23.90;;
14789;SDS011;7486;51.010;10.366;2024-03-08T08:40:34;32.23;;;23.53;;
14789;SDS011;7486;51.010;10.366;2024-03-08T08:43:20;30.90;;;23.90;;
14789;SDS011;7486;51.010;10.366;2024-03-08T08:46:06;30.60;;;22.87;;
14789;SDS011;7486;51.010;10.366;2024-03-08T08:48:51;29.67;;;21.90;;
14789;SDS011;7486;51.010;10.366;2024-03-08T08:51:36;28.90;;;23.20;;
14789;SDS011;7486;51.010;10.366;2024-03-08T08:54:23;31.47;;;23.07;;
14789;SDS011;7486;51.010;10.366;2024-03-08T08:57:08;28.77;;;22.37;;
14789;SDS011;7486;51.010;10.366;2024-03-08T08:59:54;29.73;;;22.97;;
14789;SDS011;7486;51.010;10.366;2024-03-08T09:02:39;30.93;;;23.20;;
14789;SDS011;7486;51.010;10.366;2024-03-08T09:05:25;29.93;;;23.83;;
14789;SDS011;7486;51.010;10.366;2024-03-08T09:08:11;28.73;;;23.30;;
14789;SDS011;7486;51.010;10.366;2024-03-08T09:10:57;30.80;;;22.93;;
14789;SDS011;7486;51.010;10.366;2024-03-08T09:13:44;30.60;;;23.13;;
14789;SDS011;7486;51.010;10.366;2024-03-08T09:16:30;29.67;;;23.10;;
14789;SDS011;7486;51.010;10.366;2024-03-08T09:19:15;30.10;;;23.20;;
14789;SDS011;7486;51.010;10.366;2024-03-08T09:22:01;29.73;;;21.80;;
14789;SDS011;7486;51.010;10.366;2024-03-08T09:24:47;28.40;;;22.23;;
14789;SDS011;7486;51.010;10.366;2024-03-08T09:27:33;29.90;;;22.23;;
14789;SDS011;7486;51.010;10.366;2024-03-08T09:30:22;28.83;;;22.70;;
14789;SDS011;7486;51.010;10.366;2024-03-08T09:33:08;33.93;;;23.60;;
14789;SDS011;7486;51.010;10.366;2024-03-08T09:35:54;28.47;;;22.50;;
14789;SDS011;7486;51.010;10.366;2024-03-08T09:38:40;30.63;;;22.70;;
14789;SDS011;7486;51.010;10.366;2024-03-08T09:41:28;31.77;;;23.80;;
14789;SDS011;7486;51.010;10.366;2024-03-08T09:44:14;29.63;;;22.03;;
14789;SDS011;7486;51.010;10.366;2024-03-08T09:47:03;30.17;;;23.47;;
14789;SDS011;7486;51.010;10.366;2024-03-08T09:49:50;32.30;;;23.90;;
14789;SDS011;7486;51.010;10.366;2024-03-08T09:52:36;29.93;;;24.00;;
14789;SDS011;7486;51.010;10.366;2024-03-08T09:55:23;30.73;;;22.87;;
14789;SDS011;7486;51.010;10.366;2024-03-08T09:58:12;30.30;;;22.97;;
14789;SDS011;7486;51.010;10.366;2024-03-08T10:01:00;29.07;;;22.60;;
14789;SDS011;7486;51.010;10.366;2024-03-08T10:03:46;28.73;;;22.67;;
14789;SDS011;7486;51.010;10.366;2024-03-08T10:06:33;28.97;;;23.23;;
14789;SDS011;7486;51.010;10.366;2024-03-08T10:09:18;26.57;;;22.13;;
14789;SDS011;7486;51.010;10.366;2024-03-08T10:12:05;27.97;;;21.03;;
14789;SDS011;7486;51.010;10.366;2024-03-08T10:14:54;28.80;;;20.50;;
14789;SDS011;7486;51.010;10.366;2024-03-08T10:17:40;29.07;;;22.67;;
14789;SDS011;7486;51.010;10.366;2024-03-08T10:20:26;26.97;;;20.83;;
14789;SDS011;7486;51.010;10.366;2024-03-08T10:23:13;26.80;;;20.63;;
14789;SDS011;7486;51.010;10.366;2024-03-08T10:26:17;28.20;;;21.37;;
14789;SDS011;7486;51.010;10.366;2024-03-08T10:29:03;26.97;;;21.10;;
14789;SDS011;7486;51.010;10.366;2024-03-08T10:31:49;29.10;;;20.90;;
14789;SDS011;7486;51.010;10.366;2024-03-08T10:34:35;25.00;;;20.67;;
14789;SDS011;7486;51.010;10.366;2024-03-08T10:37:21;26.80;;;21.77;;
14789;SDS011;7486;51.010;10.366;2024-03-08T10:40:08;27.50;;;20.63;;
14789;SDS011;7486;51.010;10.366;2024-03-08T10:42:56;26.87;;;21.03;;
14789;SDS011;7486;51.010;10.366;2024-03-08T10:45:47;25.73;;;19.97;;
14789;SDS011;7486;51.010;10.366;2024-03-08T10:48:34;26.03;;;21.13;;
14789;SDS011;7486;51.010;10.366;2024-03-08T10:51:28;27.60;;;22.03;;
14789;SDS011;7486;51.010;10.366;2024-03-08T10:54:15;28.97;;;21.07;;
14789;SDS011;7486;51.010;10.366;2024-03-08T10:57:02;30.33;;;22.67;;
14789;SDS011;7486;51.010;10.366;2024-03-08T10:59:50;27.97;;;20.70;;
14789;SDS011;7486;51.010;10.366;2024-03-08T11:02:38;27.47;;;21.53;;
14789;SDS011;7486;51.010;10.366;2024-03-08T11:05:31;27.07;;;20.27;;
14789;SDS011;7486;51.010;10.366;2024-03-08T11:08:21;29.03;;;21.40;;
14789;SDS011;7486;51.010;10.366;2024-03-08T11:11:23;26.90;;;20.47;;
14789;SDS011;7486;51.010;10.366;2024-03-08T11:20:17;18.47;;;15.20;;
14789;SDS011;7486;51.010;10.366;2024-03-08T11:23:04;19.50;;;15.33;;
14789;SDS011;7486;51.010;10.366;2024-03-08T11:25:55;20.13;;;16.00;;
14789;SDS011;7486;51.010;10.366;2024-03-08T11:28:41;21.27;;;15.27;;
14789;SDS011;7486;51.010;10.366;2024-03-08T11:31:26;18.40;;;14.87;;
14789;SDS011;7486;51.010;10.366;2024-03-08T11:34:15;19.27;;;15.13;;
14789;SDS011;7486;51.010;10.366;2024-03-08T11:37:05;19.60;;;16.37;;
14789;SDS011;7486;51.010;10.366;2024-03-08T11:39:56;19.77;;;15.90;;
14789;SDS011;7486;51.010;10.366;2024-03-08T11:42:48;19.63;;;15.80;;
14789;SDS011;7486;51.010;10.366;2024-03-08T11:45:34;19.83;;;15.43;;
14789;SDS011;7486;51.010;10.366;2024-03-08T11:48:20;19.70;;;15.70;;
14789;SDS011;7486;51.010;10.366;2024-03-08T11:51:06;20.00;;;15.80;;
14789;SDS011;7486;51.010;10.366;2024-03-08T11:53:52;20.13;;;15.07;;
14789;SDS011;7486;51.010;10.366;2024-03-08T11:56:38;19.00;;;15.27;;
14789;SDS011;7486;51.010;10.366;2024-03-08T11:59:25;19.87;;;15.50;;
14789;SDS011;7486;51.010;10.366;2024-03-08T12:02:14;20.27;;;16.00;;
14789;SDS011;7486;51.010;10.366;2024-03-08T12:05:00;20.13;;;16.03;;
14789;SDS011;7486;51.010;10.366;2024-03-08T12:07:55;19.43;;;16.50;;
14789;SDS011;7486;51.010;10.366;2024-03-08T12:10:42;19.73;;;16.20;;
14789;SDS011;7486;51.010;10.366;2024-03-08T12:13:32;19.57;;;14.93;;
14789;SDS011;7486;51.010;10.366;2024-03-08T12:16:18;18.43;;;15.37;;
14789;SDS011;7486;51.010;10.366;2024-03-08T12:19:04;20.93;;;15.57;;
14789;SDS011;7486;51.010;10.366;2024-03-08T12:21:51;20.70;;;16.23;;
14789;SDS011;7486;51.010;10.366;2024-03-08T12:24:36;20.80;;;16.37;;
14789;SDS011;7486;51.010;10.366;2024-03-08T12:27:23;19.37;;;16.03;;
14789;SDS011;7486;51.010;10.366;2024-03-08T12:30:19;19.07;;;15.23;;
14789;SDS011;7486;51.010;10.366;2024-03-08T12:33:10;18.30;;;15.33;;
14789;SDS011;7486;51.010;10.366;2024-03-08T12:35:56;20.30;;;14.93;;
14789;SDS011;7486;51.010;10.366;2024-03-08T12:38:45;23.80;;;17.00;;
14789;SDS011;7486;51.010;10.366;2024-03-08T12:41:38;19.53;;;15.73;;
14789;SDS011;7486;51.010;10.366;2024-03-08T12:44:25;19.33;;;15.97;;
14789;SDS011;7486;51.010;10.366;2024-03-08T12:47:11;20.33;;;14.93;;
14789;SDS011;7486;51.010;10.366;2024-03-08T12:49:57;20.50;;;15.90;;
14789;SDS011;7486;51.010;10.366;2024-03-08T12:52:42;18.17;;;15.00;;
14789;SDS011;7486;51.010;10.366;2024-03-08T12:55:28;19.70;;;16.10;;
14789;SDS011;7486;51.010;10.366;2024-03-08T12:58:13;19.80;;;15.57;;
14789;SDS011;7486;51.010;10.366;2024-03-08T13:01:00;21.05;;;16.65;;
14789;SDS011;7486;51.010;10.366;2024-03-08T13:03:45;20.30;;;15.93;;
14789;SDS011;7486;51.010;10.366;2024-03-08T13:06:33;19.77;;;16.33;;
14789;SDS011;7486;51.010;10.366;2024-03-08T13:09:20;19.30;;;16.20;;
14789;SDS011;7486;51.010;10.366;2024-03-08T13:12:06;21.80;;;17.47;;
14789;SDS011;7486;51.010;10.366;2024-03-08T13:14:53;21.23;;;17.30;;
14789;SDS011;7486;51.010;10.366;2024-03-08T13:17:39;20.63;;;17.00;;
14789;SDS011;7486;51.010;10.366;2024-03-08T13:20:25;21.97;;;17.07;;
14789;SDS011;7486;51.010;10.366;2024-03-08T13:23:23;21.23;;;17.03;;
14789;SDS011;7486;51.010;10.366;2024-03-08T13:26:10;19.67;;;16.10;;
14789;SDS011;7486;51.010;10.366;2024-03-08T13:28:56;21.23;;;17.93;;
14789;SDS011;7486;51.010;10.366;2024-03-08T13:31:43;21.70;;;16.53;;
14789;SDS011;7486;51.010;10.366;2024-03-08T13:34:30;23.53;;;17.70;;
14789;SDS011;7486;51.010;10.366;2024-03-08T13:37:16;21.07;;;17.10;;
14789;SDS011;7486;51.010;10.366;2024-03-08T13:40:03;22.13;;;16.53;;
14789;SDS011;7486;51.010;10.366;2024-03-08T13:42:49;21.00;;;16.27;;
14789;SDS011;7486;51.010;10.366;2024-03-08T13:45:36;21.03;;;16.73;;
14789;SDS011;7486;51.010;10.366;2024-03-08T13:48:25;21.10;;;17.23;;
14789;SDS011;7486;51.010;10.366;2024-03-08T13:51:11;20.73;;;17.30;;
14789;SDS011;7486;51.010;10.366;2024-03-08T13:53:59;21.20;;;16.70;;
14789;SDS011;7486;51.010;10.366;2024-03-08T13:56:49;21.07;;;16.27;;
14789;SDS011;7486;51.010;10.366;2024-03-08T13:59:37;19.70;;;15.17;;
14789;SDS011;7486;51.010;10.366;2024-03-08T14:02:25;21.03;;;16.50;;
14789;SDS011;7486;51.010;10.366;2024-03-08T14:05:13;21.47;;;16.57;;
14789;SDS011;7486;51.010;10.366;2024-03-08T14:08:01;18.63;;;16.07;;
14789;SDS011;7486;51.010;10.366;2024-03-08T14:10:53;19.77;;;15.87;;
14789;SDS011;7486;51.010;10.366;2024-03-08T14:13:42;22.20;;;17.37;;
14789;SDS011;7486;51.010;10.366;2024-03-08T14:16:29;21.60;;;16.37;;
14789;SDS011;7486;51.010;10.366;2024-03-08T14:19:16;19.00;;;16.57;;
14789;SDS011;7486;51.010;10.366;2024-03-08T14:22:01;20.57;;;16.37;;
14789;SDS011;7486;51.010;10.366;2024-03-08T14:24:48;22.43;;;16.80;;
14789;SDS011;7486;51.010;10.366;2024-03-08T14:27:33;20.47;;;16.63;;
14789;SDS011;7486;51.010;10.366;2024-03-08T14:30:24;19.57;;;16.47;;
14789;SDS011;7486;51.010;10.366;2024-03-08T14:33:09;22.27;;;16.33;;
14789;SDS011;7486;51.010;10.366;2024-03-08T14:35:57;21.30;;;15.97;;
14789;SDS011;7486;51.010;10.366;2024-03-08T14:38:43;20.13;;;16.13;;
14789;SDS011;7486;51.010;10.366;2024-03-08T14:41:28;20.03;;;16.87;;
14789;SDS011;7486;51.010;10.366;2024-03-08T14:44:15;19.50;;;15.80;;
14789;SDS011;7486;51.010;10.366;2024-03-08T14:47:00;19.57;;;16.37;;
14789;SDS011;7486;51.010;10.366;2024-03-08T14:49:46;21.93;;;16.77;;
14789;SDS011;7486;51.010;10.366;2024-03-08T14:52:34;19.57;;;15.70;;
14789;SDS011;7486;51.010;10.366;2024-03-08T14:55:20;21.20;;;16.67;;
14789;SDS011;7486;51.010;10.366;2024-03-08T14:58:07;19.33;;;15.57;;
14789;SDS011;7486;51.010;10.366;2024-03-08T15:00:53;19.70;;;15.93;;
14789;SDS011;7486;51.010;10.366;2024-03-08T15:03:41;20.02;;;16.67;;
14789;SDS011;7486;51.010;10.366;2024-03-08T15:06:27;18.60;;;15.93;;
14789;SDS011;7486;51.010;10.366;2024-03-08T15:09:13;19.70;;;15.77;;
14789;SDS011;7486;51.010;10.366;2024-03-08T15:11:58;21.57;;;16.57;;
14789;SDS011;7486;51.010;10.366;2024-03-08T15:14:44;21.17;;;16.67;;
14789;SDS011;7486;51.010;10.366;2024-03-08T15:17:30;19.57;;;16.33;;
14789;SDS011;7486;51.010;10.366;2024-03-08T15:20:15;20.00;;;16.53;;
14789;SDS011;7486;51.010;10.366;2024-03-08T15:23:02;21.83;;;16.97;;
14789;SDS011;7486;51.010;10.366;2024-03-08T15:25:48;21.40;;;16.20;;
14789;SDS011;7486;51.010;10.366;2024-03-08T15:28:36;20.27;;;16.80;;
14789;SDS011;7486;51.010;10.366;2024-03-08T15:31:23;22.40;;;17.07;;
14789;SDS011;7486;51.010;10.366;2024-03-08T15:34:08;20.50;;;16.97;;
14789;SDS011;7486;51.010;10.366;2024-03-08T15:36:54;20.07;;;15.77;;
14789;SDS011;7486;51.010;10.366;2024-03-08T15:39:39;20.90;;;16.90;;
14789;SDS011;7486;51.010;10.366;2024-03-08T15:42:25;21.13;;;15.83;;
14789;SDS011;7486;51.010;10.366;2024-03-08T15:45:12;22.53;;;17.37;;
14789;SDS011;7486;51.010;10.366;2024-03-08T15:47:58;23.73;;;18.40;;
14789;SDS011;7486;51.010;10.366;2024-03-08T15:50:43;22.70;;;17.33;;
14789;SDS011;7486;51.010;10.366;2024-03-08T15:53:30;22.07;;;17.30;;
14789;SDS011;7486;51.010;10.366;2024-03-08T15:56:16;24.17;;;17.63;;
14789;SDS011;7486;51.010;10.366;2024-03-08T15:59:03;21.47;;;17.37;;
14789;SDS011;7486;51.010;10.366;2024-03-08T16:01:49;22.20;;;17.37;;
14789;SDS011;7486;51.010;10.366;2024-03-08T16:04:38;21.27;;;17.17;;
14789;SDS011;7486;51.010;10.366;2024-03-08T16:07:25;21.10;;;17.33;;
14789;SDS011;7486;51.010;10.366;2024-03-08T16:10:10;24.10;;;17.13;;
14789;SDS011;7486;51.010;10.366;2024-03-08T16:12:56;21.93;;;17.80;;
14789;SDS011;7486;51.010;10.366;2024-03-08T16:15:44;22.63;;;17.67;;
14789;SDS011;7486;51.010;10.366;2024-03-08T16:18:36;20.97;;;17.13;;